sensor_id;sensor_type;location;lat;lon;timestamp;P1;durP1;ratioP1;P2;durP2;ratioP2
44068;SDS011;29738;51.234;5.484;2022-08-18T00:02:15;80.07;;;35.15;;
44068;SDS011;29738;51.234;5.484;2022-08-18T00:04:45;69.53;;;32.97;;
44068;SDS011;29738;51.234;5.484;2022-08-18T00:07:12;78.03;;;31.65;;
44068;SDS011;29738;51.234;5.484;2022-08-18T00:09:39;75.97;;;32.20;;
44068;SDS011;29738;51.234;5.484;2022-08-18T00:12:29;74.13;;;32.33;;
44068;SDS011;29738;51.234;5.484;2022-08-18T00:14:57;68.10;;;31.43;;
44068;SDS011;29738;51.234;5.484;2022-08-18T00:17:28;70.83;;;32.57;;
44068;SDS011;29738;51.234;5.484;2022-08-18T00:19:54;68.50;;;30.70;;
44068;SDS011;29738;51.234;5.484;2022-08-18T00:22:20;63.40;;;29.05;;
44068;SDS011;29738;51.234;5.484;2022-08-18T00:24:54;58.03;;;27.63;;
44068;SDS011;29738;51.234;5.484;2022-08-18T00:27:23;69.60;;;30.77;;
44068;SDS011;29738;51.234;5.484;2022-08-18T00:29:53;64.22;;;29.45;;
44068;SDS011;29738;51.234;5.484;2022-08-18T00:32:23;64.18;;;29.95;;
44068;SDS011;29738;51.234;5.484;2022-08-18T00:35:02;63.60;;;28.92;;
44068;SDS011;29738;51.234;5.484;2022-08-18T00:37:33;58.38;;;28.60;;
44068;SDS011;29738;51.234;5.484;2022-08-18T00:40:00;57.53;;;28.10;;
44068;SDS011;29738;51.234;5.484;2022-08-18T00:42:28;60.38;;;28.80;;
44068;SDS011;29738;51.234;5.484;2022-08-18T00:44:56;61.05;;;28.20;;
44068;SDS011;29738;51.234;5.484;2022-08-18T00:47:23;50.17;;;25.95;;
44068;SDS011;29738;51.234;5.484;2022-08-18T00:49:52;57.25;;;25.95;;
44068;SDS011;29738;51.234;5.484;2022-08-18T00:52:18;52.30;;;26.75;;
44068;SDS011;29738;51.234;5.484;2022-08-18T00:54:46;53.28;;;25.80;;
44068;SDS011;29738;51.234;5.484;2022-08-18T00:57:12;51.30;;;26.05;;
44068;SDS011;29738;51.234;5.484;2022-08-18T00:59:48;51.92;;;27.05;;
44068;SDS011;29738;51.234;5.484;2022-08-18T01:02:23;54.70;;;25.48;;
44068;SDS011;29738;51.234;5.484;2022-08-18T01:07:32;49.25;;;23.67;;
44068;SDS011;29738;51.234;5.484;2022-08-18T01:10:04;44.83;;;24.08;;
44068;SDS011;29738;51.234;5.484;2022-08-18T01:12:31;48.88;;;25.75;;
44068;SDS011;29738;51.234;5.484;2022-08-18T01:14:57;42.72;;;21.48;;
44068;SDS011;29738;51.234;5.484;2022-08-18T01:17:23;46.92;;;24.15;;
44068;SDS011;29738;51.234;5.484;2022-08-18T01:20:10;44.40;;;22.85;;
44068;SDS011;29738;51.234;5.484;2022-08-18T01:25:33;43.90;;;22.20;;
44068;SDS011;29738;51.234;5.484;2022-08-18T01:28:20;47.45;;;23.90;;
44068;SDS011;29738;51.234;5.484;2022-08-18T01:30:51;47.47;;;23.42;;
44068;SDS011;29738;51.234;5.484;2022-08-18T01:33:22;45.65;;;23.30;;
44068;SDS011;29738;51.234;5.484;2022-08-18T01:35:56;46.28;;;23.40;;
44068;SDS011;29738;51.234;5.484;2022-08-18T01:38:28;49.28;;;23.00;;
44068;SDS011;29738;51.234;5.484;2022-08-18T01:40:56;48.25;;;23.10;;
44068;SDS011;29738;51.234;5.484;2022-08-18T01:43:23;44.60;;;22.52;;
44068;SDS011;29738;51.234;5.484;2022-08-18T01:45:49;52.05;;;24.50;;
44068;SDS011;29738;51.234;5.484;2022-08-18T01:48:15;46.85;;;23.50;;
44068;SDS011;29738;51.234;5.484;2022-08-18T01:50:42;47.63;;;22.77;;
44068;SDS011;29738;51.234;5.484;2022-08-18T01:53:09;48.30;;;23.10;;
44068;SDS011;29738;51.234;5.484;2022-08-18T01:55:37;43.25;;;22.15;;
44068;SDS011;29738;51.234;5.484;2022-08-18T01:58:05;44.97;;;22.45;;
44068;SDS011;29738;51.234;5.484;2022-08-18T02:00:32;43.60;;;22.77;;
44068;SDS011;29738;51.234;5.484;2022-08-18T02:02:59;44.10;;;21.73;;
44068;SDS011;29738;51.234;5.484;2022-08-18T02:05:42;43.28;;;21.45;;
44068;SDS011;29738;51.234;5.484;2022-08-18T02:08:13;44.42;;;21.92;;
44068;SDS011;29738;51.234;5.484;2022-08-18T02:10:39;47.58;;;22.73;;
44068;SDS011;29738;51.234;5.484;2022-08-18T02:13:06;47.45;;;21.75;;
44068;SDS011;29738;51.234;5.484;2022-08-18T02:15:33;40.15;;;20.33;;
44068;SDS011;29738;51.234;5.484;2022-08-18T02:17:59;44.70;;;22.98;;
44068;SDS011;29738;51.234;5.484;2022-08-18T02:20:25;49.20;;;24.10;;
44068;SDS011;29738;51.234;5.484;2022-08-18T02:22:51;44.38;;;23.17;;
44068;SDS011;29738;51.234;5.484;2022-08-18T02:25:17;43.50;;;21.55;;
44068;SDS011;29738;51.234;5.484;2022-08-18T02:27:43;44.50;;;21.73;;
44068;SDS011;29738;51.234;5.484;2022-08-18T02:30:11;46.15;;;22.02;;
44068;SDS011;29738;51.234;5.484;2022-08-18T02:32:39;43.13;;;21.60;;
44068;SDS011;29738;51.234;5.484;2022-08-18T02:35:05;45.75;;;22.55;;
44068;SDS011;29738;51.234;5.484;2022-08-18T02:37:31;44.45;;;22.42;;
44068;SDS011;29738;51.234;5.484;2022-08-18T02:39:57;48.25;;;23.50;;
44068;SDS011;29738;51.234;5.484;2022-08-18T02:42:23;47.58;;;23.85;;
44068;SDS011;29738;51.234;5.484;2022-08-18T02:44:49;45.58;;;22.10;;
44068;SDS011;29738;51.234;5.484;2022-08-18T02:47:18;49.58;;;24.48;;
44068;SDS011;29738;51.234;5.484;2022-08-18T02:49:44;55.08;;;27.25;;
44068;SDS011;29738;51.234;5.484;2022-08-18T02:52:10;55.28;;;25.25;;
44068;SDS011;29738;51.234;5.484;2022-08-18T02:54:36;55.50;;;25.35;;
44068;SDS011;29738;51.234;5.484;2022-08-18T02:57:08;53.20;;;25.02;;
44068;SDS011;29738;51.234;5.484;2022-08-18T02:59:36;54.75;;;24.63;;
44068;SDS011;29738;51.234;5.484;2022-08-18T03:02:04;55.15;;;25.02;;
44068;SDS011;29738;51.234;5.484;2022-08-18T03:04:33;52.80;;;26.75;;
44068;SDS011;29738;51.234;5.484;2022-08-18T03:07:00;54.13;;;24.83;;
44068;SDS011;29738;51.234;5.484;2022-08-18T03:09:28;49.58;;;23.42;;
44068;SDS011;29738;51.234;5.484;2022-08-18T03:11:55;49.08;;;24.85;;
44068;SDS011;29738;51.234;5.484;2022-08-18T03:14:21;52.15;;;24.17;;
44068;SDS011;29738;51.234;5.484;2022-08-18T03:16:47;49.85;;;25.70;;
44068;SDS011;29738;51.234;5.484;2022-08-18T03:19:14;51.88;;;25.13;;
44068;SDS011;29738;51.234;5.484;2022-08-18T03:21:40;49.92;;;24.42;;
44068;SDS011;29738;51.234;5.484;2022-08-18T03:24:10;50.05;;;23.33;;
44068;SDS011;29738;51.234;5.484;2022-08-18T03:26:43;48.75;;;24.67;;
44068;SDS011;29738;51.234;5.484;2022-08-18T03:29:10;47.33;;;23.77;;
44068;SDS011;29738;51.234;5.484;2022-08-18T03:31:36;46.47;;;23.55;;
44068;SDS011;29738;51.234;5.484;2022-08-18T03:34:03;49.75;;;25.05;;
44068;SDS011;29738;51.234;5.484;2022-08-18T03:36:31;52.00;;;24.75;;
44068;SDS011;29738;51.234;5.484;2022-08-18T03:39:00;47.72;;;25.00;;
44068;SDS011;29738;51.234;5.484;2022-08-18T03:41:29;50.17;;;25.85;;
44068;SDS011;29738;51.234;5.484;2022-08-18T03:43:55;53.08;;;25.35;;
44068;SDS011;29738;51.234;5.484;2022-08-18T03:46:21;51.55;;;26.45;;
44068;SDS011;29738;51.234;5.484;2022-08-18T03:48:49;55.40;;;26.85;;
44068;SDS011;29738;51.234;5.484;2022-08-18T03:51:21;55.40;;;27.23;;
44068;SDS011;29738;51.234;5.484;2022-08-18T03:53:49;58.50;;;27.30;;
44068;SDS011;29738;51.234;5.484;2022-08-18T03:56:18;59.85;;;27.17;;
44068;SDS011;29738;51.234;5.484;2022-08-18T03:58:47;60.40;;;28.65;;
44068;SDS011;29738;51.234;5.484;2022-08-18T04:01:16;61.10;;;28.55;;
44068;SDS011;29738;51.234;5.484;2022-08-18T04:03:45;57.45;;;28.83;;
44068;SDS011;29738;51.234;5.484;2022-08-18T04:06:15;58.22;;;26.60;;
44068;SDS011;29738;51.234;5.484;2022-08-18T04:08:46;54.60;;;25.20;;
44068;SDS011;29738;51.234;5.484;2022-08-18T04:11:15;59.13;;;26.77;;
44068;SDS011;29738;51.234;5.484;2022-08-18T04:13:41;52.65;;;25.58;;
44068;SDS011;29738;51.234;5.484;2022-08-18T04:16:07;60.22;;;27.13;;
44068;SDS011;29738;51.234;5.484;2022-08-18T04:18:33;58.22;;;27.98;;
44068;SDS011;29738;51.234;5.484;2022-08-18T04:21:03;60.38;;;27.30;;
44068;SDS011;29738;51.234;5.484;2022-08-18T04:23:32;59.45;;;27.52;;
44068;SDS011;29738;51.234;5.484;2022-08-18T04:25:58;58.55;;;27.23;;
44068;SDS011;29738;51.234;5.484;2022-08-18T04:28:25;43.60;;;21.88;;
44068;SDS011;29738;51.234;5.484;2022-08-18T04:30:52;55.30;;;25.88;;
44068;SDS011;29738;51.234;5.484;2022-08-18T04:33:26;53.47;;;24.25;;
44068;SDS011;29738;51.234;5.484;2022-08-18T04:35:53;51.78;;;24.90;;
44068;SDS011;29738;51.234;5.484;2022-08-18T04:38:19;52.55;;;25.40;;
44068;SDS011;29738;51.234;5.484;2022-08-18T04:40:46;58.13;;;25.83;;
44068;SDS011;29738;51.234;5.484;2022-08-18T04:43:12;57.45;;;25.45;;
44068;SDS011;29738;51.234;5.484;2022-08-18T04:45:41;51.88;;;25.48;;
44068;SDS011;29738;51.234;5.484;2022-08-18T04:48:09;59.95;;;25.63;;
44068;SDS011;29738;51.234;5.484;2022-08-18T04:50:35;58.38;;;25.38;;
44068;SDS011;29738;51.234;5.484;2022-08-18T04:53:02;51.25;;;24.65;;
44068;SDS011;29738;51.234;5.484;2022-08-18T04:55:50;49.15;;;25.23;;
44068;SDS011;29738;51.234;5.484;2022-08-18T04:58:18;48.97;;;22.38;;
44068;SDS011;29738;51.234;5.484;2022-08-18T05:00:45;53.90;;;25.50;;
44068;SDS011;29738;51.234;5.484;2022-08-18T05:03:12;49.53;;;23.67;;
44068;SDS011;29738;51.234;5.484;2022-08-18T05:05:38;45.10;;;22.08;;
44068;SDS011;29738;51.234;5.484;2022-08-18T05:08:03;56.58;;;24.45;;
44068;SDS011;29738;51.234;5.484;2022-08-18T05:10:29;53.17;;;23.60;;
44068;SDS011;29738;51.234;5.484;2022-08-18T05:12:55;50.15;;;24.73;;
44068;SDS011;29738;51.234;5.484;2022-08-18T05:15:21;48.70;;;22.00;;
44068;SDS011;29738;51.234;5.484;2022-08-18T05:17:47;54.05;;;24.23;;
44068;SDS011;29738;51.234;5.484;2022-08-18T05:20:13;48.90;;;22.20;;
44068;SDS011;29738;51.234;5.484;2022-08-18T05:22:39;52.67;;;25.15;;
44068;SDS011;29738;51.234;5.484;2022-08-18T05:25:07;57.13;;;24.40;;
44068;SDS011;29738;51.234;5.484;2022-08-18T05:27:36;52.78;;;23.95;;
44068;SDS011;29738;51.234;5.484;2022-08-18T05:30:04;53.45;;;24.27;;
44068;SDS011;29738;51.234;5.484;2022-08-18T05:32:49;50.88;;;24.08;;
44068;SDS011;29738;51.234;5.484;2022-08-18T05:35:17;55.88;;;25.63;;
44068;SDS011;29738;51.234;5.484;2022-08-18T05:40:28;54.60;;;25.83;;
44068;SDS011;29738;51.234;5.484;2022-08-18T05:42:55;61.17;;;26.13;;
44068;SDS011;29738;51.234;5.484;2022-08-18T05:45:23;61.55;;;26.88;;
44068;SDS011;29738;51.234;5.484;2022-08-18T05:47:50;55.55;;;27.08;;
44068;SDS011;29738;51.234;5.484;2022-08-18T05:50:21;61.50;;;28.33;;
44068;SDS011;29738;51.234;5.484;2022-08-18T05:52:51;66.03;;;28.33;;
44068;SDS011;29738;51.234;5.484;2022-08-18T05:58:24;66.40;;;27.65;;
44068;SDS011;29738;51.234;5.484;2022-08-18T06:00:57;60.13;;;26.95;;
44068;SDS011;29738;51.234;5.484;2022-08-18T06:03:31;54.58;;;26.25;;
44068;SDS011;29738;51.234;5.484;2022-08-18T06:06:19;57.60;;;27.35;;
44068;SDS011;29738;51.234;5.484;2022-08-18T06:08:51;55.05;;;26.73;;
44068;SDS011;29738;51.234;5.484;2022-08-18T06:11:32;57.80;;;26.73;;
44068;SDS011;29738;51.234;5.484;2022-08-18T06:13:58;56.67;;;27.55;;
44068;SDS011;29738;51.234;5.484;2022-08-18T06:21:51;54.35;;;26.27;;
44068;SDS011;29738;51.234;5.484;2022-08-18T06:27:23;59.55;;;27.55;;
44068;SDS011;29738;51.234;5.484;2022-08-18T06:32:45;57.38;;;26.77;;
44068;SDS011;29738;51.234;5.484;2022-08-18T06:41:49;52.03;;;25.27;;
44068;SDS011;29738;51.234;5.484;2022-08-18T06:44:08;52.20;;;24.30;;
44068;SDS011;29738;51.234;5.484;2022-08-18T06:46:41;49.40;;;24.73;;
44068;SDS011;29738;51.234;5.484;2022-08-18T06:54:59;46.83;;;23.10;;
44068;SDS011;29738;51.234;5.484;2022-08-18T06:57:31;49.38;;;23.55;;
44068;SDS011;29738;51.234;5.484;2022-08-18T07:00:02;42.25;;;21.90;;
44068;SDS011;29738;51.234;5.484;2022-08-18T07:05:31;40.45;;;20.80;;
44068;SDS011;29738;51.234;5.484;2022-08-18T07:08:08;37.70;;;20.10;;
44068;SDS011;29738;51.234;5.484;2022-08-18T07:10:52;42.25;;;20.20;;
44068;SDS011;29738;51.234;5.484;2022-08-18T07:13:20;43.55;;;21.60;;
44068;SDS011;29738;51.234;5.484;2022-08-18T07:16:13;35.78;;;18.75;;
44068;SDS011;29738;51.234;5.484;2022-08-18T07:18:44;36.53;;;18.83;;
44068;SDS011;29738;51.234;5.484;2022-08-18T07:21:22;36.83;;;19.35;;
44068;SDS011;29738;51.234;5.484;2022-08-18T07:24:10;34.22;;;19.35;;
44068;SDS011;29738;51.234;5.484;2022-08-18T07:29:28;33.75;;;17.77;;
44068;SDS011;29738;51.234;5.484;2022-08-18T07:31:56;34.00;;;18.42;;
44068;SDS011;29738;51.234;5.484;2022-08-18T07:37:44;32.47;;;18.75;;
44068;SDS011;29738;51.234;5.484;2022-08-18T07:40:00;32.58;;;17.48;;
44068;SDS011;29738;51.234;5.484;2022-08-18T07:47:47;36.50;;;18.80;;
44068;SDS011;29738;51.234;5.484;2022-08-18T07:50:18;30.23;;;15.93;;
44068;SDS011;29738;51.234;5.484;2022-08-18T07:55:37;31.85;;;16.77;;
44068;SDS011;29738;51.234;5.484;2022-08-18T08:06:23;26.60;;;14.73;;
44068;SDS011;29738;51.234;5.484;2022-08-18T08:09:00;26.15;;;15.32;;
44068;SDS011;29738;51.234;5.484;2022-08-18T08:14:25;28.27;;;14.93;;
44068;SDS011;29738;51.234;5.484;2022-08-18T08:22:36;26.08;;;14.13;;
44068;SDS011;29738;51.234;5.484;2022-08-18T08:30:31;26.88;;;14.13;;
44068;SDS011;29738;51.234;5.484;2022-08-18T08:41:12;22.10;;;12.10;;
44068;SDS011;29738;51.234;5.484;2022-08-18T08:46:46;22.92;;;13.90;;
44068;SDS011;29738;51.234;5.484;2022-08-18T08:49:24;22.02;;;12.77;;
44068;SDS011;29738;51.234;5.484;2022-08-18T08:52:16;24.25;;;13.50;;
44068;SDS011;29738;51.234;5.484;2022-08-18T08:57:29;20.88;;;11.55;;
44068;SDS011;29738;51.234;5.484;2022-08-18T09:00:00;20.13;;;12.15;;
44068;SDS011;29738;51.234;5.484;2022-08-18T09:02:48;19.58;;;11.63;;
44068;SDS011;29738;51.234;5.484;2022-08-18T09:05:27;19.85;;;11.63;;
44068;SDS011;29738;51.234;5.484;2022-08-18T09:08:02;18.65;;;10.95;;
44068;SDS011;29738;51.234;5.484;2022-08-18T09:16:33;22.73;;;12.98;;
44068;SDS011;29738;51.234;5.484;2022-08-18T09:19:09;25.63;;;14.88;;
44068;SDS011;29738;51.234;5.484;2022-08-18T09:21:43;25.45;;;14.02;;
44068;SDS011;29738;51.234;5.484;2022-08-18T09:26:49;23.10;;;12.80;;
44068;SDS011;29738;51.234;5.484;2022-08-18T09:37:41;24.92;;;13.35;;
44068;SDS011;29738;51.234;5.484;2022-08-18T09:40:16;27.00;;;14.20;;
44068;SDS011;29738;51.234;5.484;2022-08-18T09:43:08;18.27;;;10.82;;
44068;SDS011;29738;51.234;5.484;2022-08-18T09:45:58;20.45;;;11.50;;
44068;SDS011;29738;51.234;5.484;2022-08-18T09:48:30;18.60;;;11.35;;
44068;SDS011;29738;51.234;5.484;2022-08-18T09:53:51;19.80;;;11.52;;
44068;SDS011;29738;51.234;5.484;2022-08-18T10:02:08;18.30;;;10.57;;
44068;SDS011;29738;51.234;5.484;2022-08-18T10:04:36;20.08;;;11.63;;
44068;SDS011;29738;51.234;5.484;2022-08-18T10:07:29;20.65;;;11.98;;
44068;SDS011;29738;51.234;5.484;2022-08-18T10:12:52;20.35;;;11.73;;
44068;SDS011;29738;51.234;5.484;2022-08-18T10:15:28;20.10;;;11.88;;
44068;SDS011;29738;51.234;5.484;2022-08-18T10:23:42;20.60;;;11.57;;
44068;SDS011;29738;51.234;5.484;2022-08-18T10:26:57;19.80;;;11.57;;
44068;SDS011;29738;51.234;5.484;2022-08-18T10:29:06;21.05;;;11.45;;
44068;SDS011;29738;51.234;5.484;2022-08-18T10:42:06;21.90;;;11.15;;
44068;SDS011;29738;51.234;5.484;2022-08-18T10:44:50;18.88;;;11.90;;
44068;SDS011;29738;51.234;5.484;2022-08-18T10:47:26;21.38;;;12.23;;
44068;SDS011;29738;51.234;5.484;2022-08-18T10:49:55;22.45;;;12.88;;
44068;SDS011;29738;51.234;5.484;2022-08-18T10:57:44;22.38;;;11.90;;
44068;SDS011;29738;51.234;5.484;2022-08-18T11:00:26;22.25;;;12.48;;
44068;SDS011;29738;51.234;5.484;2022-08-18T11:06:03;18.75;;;11.23;;
44068;SDS011;29738;51.234;5.484;2022-08-18T11:08:46;21.45;;;12.27;;
44068;SDS011;29738;51.234;5.484;2022-08-18T11:11:18;17.05;;;9.70;;
44068;SDS011;29738;51.234;5.484;2022-08-18T11:16:47;17.65;;;10.55;;
44068;SDS011;29738;51.234;5.484;2022-08-18T11:19:23;20.85;;;11.95;;
44068;SDS011;29738;51.234;5.484;2022-08-18T11:21:50;22.35;;;11.45;;
44068;SDS011;29738;51.234;5.484;2022-08-18T11:24:21;20.92;;;11.23;;
44068;SDS011;29738;51.234;5.484;2022-08-18T11:26:53;19.90;;;11.65;;
44068;SDS011;29738;51.234;5.484;2022-08-18T11:29:38;20.92;;;10.85;;
44068;SDS011;29738;51.234;5.484;2022-08-18T11:32:08;18.70;;;10.73;;
44068;SDS011;29738;51.234;5.484;2022-08-18T11:34:51;22.63;;;11.27;;
44068;SDS011;29738;51.234;5.484;2022-08-18T11:37:31;18.30;;;10.82;;
44068;SDS011;29738;51.234;5.484;2022-08-18T11:42:46;19.92;;;11.52;;
44068;SDS011;29738;51.234;5.484;2022-08-18T11:45:19;19.33;;;11.95;;
44068;SDS011;29738;51.234;5.484;2022-08-18T11:48:00;23.33;;;12.07;;
44068;SDS011;29738;51.234;5.484;2022-08-18T11:50:43;21.55;;;11.57;;
44068;SDS011;29738;51.234;5.484;2022-08-18T12:09:22;21.95;;;11.95;;
44068;SDS011;29738;51.234;5.484;2022-08-18T12:14:52;22.17;;;12.65;;
44068;SDS011;29738;51.234;5.484;2022-08-18T12:17:36;23.20;;;13.02;;
44068;SDS011;29738;51.234;5.484;2022-08-18T12:20:03;24.52;;;13.82;;
44068;SDS011;29738;51.234;5.484;2022-08-18T12:22:33;25.75;;;14.25;;
44068;SDS011;29738;51.234;5.484;2022-08-18T12:25:00;24.48;;;12.65;;
44068;SDS011;29738;51.234;5.484;2022-08-18T12:27:27;23.50;;;13.43;;
44068;SDS011;29738;51.234;5.484;2022-08-18T12:29:55;25.63;;;14.05;;
44068;SDS011;29738;51.234;5.484;2022-08-18T12:32:23;23.17;;;13.73;;
44068;SDS011;29738;51.234;5.484;2022-08-18T12:34:50;24.63;;;13.15;;
44068;SDS011;29738;51.234;5.484;2022-08-18T12:37:18;22.38;;;12.18;;
44068;SDS011;29738;51.234;5.484;2022-08-18T12:39:46;22.45;;;12.30;;
44068;SDS011;29738;51.234;5.484;2022-08-18T12:42:12;23.35;;;12.95;;
44068;SDS011;29738;51.234;5.484;2022-08-18T12:44:38;23.10;;;13.77;;
44068;SDS011;29738;51.234;5.484;2022-08-18T12:47:12;25.17;;;12.98;;
44068;SDS011;29738;51.234;5.484;2022-08-18T12:49:40;23.85;;;13.13;;
44068;SDS011;29738;51.234;5.484;2022-08-18T12:52:06;26.15;;;13.20;;
44068;SDS011;29738;51.234;5.484;2022-08-18T12:54:32;24.17;;;12.90;;
44068;SDS011;29738;51.234;5.484;2022-08-18T12:57:00;23.95;;;13.55;;
44068;SDS011;29738;51.234;5.484;2022-08-18T12:59:27;23.42;;;14.23;;
44068;SDS011;29738;51.234;5.484;2022-08-18T13:01:53;25.65;;;14.35;;
44068;SDS011;29738;51.234;5.484;2022-08-18T13:04:19;24.60;;;14.10;;
44068;SDS011;29738;51.234;5.484;2022-08-18T13:06:49;21.60;;;12.80;;
44068;SDS011;29738;51.234;5.484;2022-08-18T13:09:19;25.13;;;12.80;;
44068;SDS011;29738;51.234;5.484;2022-08-18T13:11:46;25.77;;;13.52;;
44068;SDS011;29738;51.234;5.484;2022-08-18T13:14:12;26.60;;;14.90;;
44068;SDS011;29738;51.234;5.484;2022-08-18T13:16:41;27.33;;;14.05;;
44068;SDS011;29738;51.234;5.484;2022-08-18T13:19:10;27.90;;;14.48;;
44068;SDS011;29738;51.234;5.484;2022-08-18T13:21:38;23.92;;;13.88;;
44068;SDS011;29738;51.234;5.484;2022-08-18T13:24:04;24.13;;;13.70;;
44068;SDS011;29738;51.234;5.484;2022-08-18T13:26:31;29.27;;;13.77;;
44068;SDS011;29738;51.234;5.484;2022-08-18T13:29:00;25.98;;;12.77;;
44068;SDS011;29738;51.234;5.484;2022-08-18T13:31:26;25.50;;;13.43;;
44068;SDS011;29738;51.234;5.484;2022-08-18T13:33:53;24.45;;;14.07;;
44068;SDS011;29738;51.234;5.484;2022-08-18T13:36:20;22.50;;;12.65;;
44068;SDS011;29738;51.234;5.484;2022-08-18T13:38:47;28.52;;;13.38;;
44068;SDS011;29738;51.234;5.484;2022-08-18T13:41:14;23.25;;;13.38;;
44068;SDS011;29738;51.234;5.484;2022-08-18T13:43:40;23.15;;;12.40;;
44068;SDS011;29738;51.234;5.484;2022-08-18T13:46:08;27.77;;;13.45;;
44068;SDS011;29738;51.234;5.484;2022-08-18T13:48:35;25.35;;;13.75;;
44068;SDS011;29738;51.234;5.484;2022-08-18T13:51:03;24.52;;;13.25;;
44068;SDS011;29738;51.234;5.484;2022-08-18T13:53:32;24.95;;;12.63;;
44068;SDS011;29738;51.234;5.484;2022-08-18T13:55:59;25.30;;;13.63;;
44068;SDS011;29738;51.234;5.484;2022-08-18T13:58:26;25.25;;;13.75;;
44068;SDS011;29738;51.234;5.484;2022-08-18T14:00:57;24.88;;;14.15;;
44068;SDS011;29738;51.234;5.484;2022-08-18T14:03:24;23.65;;;13.10;;
44068;SDS011;29738;51.234;5.484;2022-08-18T14:05:50;24.20;;;13.35;;
44068;SDS011;29738;51.234;5.484;2022-08-18T14:08:17;24.30;;;12.90;;
44068;SDS011;29738;51.234;5.484;2022-08-18T14:10:44;24.63;;;13.30;;
44068;SDS011;29738;51.234;5.484;2022-08-18T14:13:14;27.25;;;13.45;;
44068;SDS011;29738;51.234;5.484;2022-08-18T14:15:43;27.08;;;14.15;;
44068;SDS011;29738;51.234;5.484;2022-08-18T14:18:09;26.90;;;13.77;;
44068;SDS011;29738;51.234;5.484;2022-08-18T14:20:36;26.15;;;13.55;;
44068;SDS011;29738;51.234;5.484;2022-08-18T14:23:20;22.92;;;12.93;;
44068;SDS011;29738;51.234;5.484;2022-08-18T14:26:05;26.23;;;14.70;;
44068;SDS011;29738;51.234;5.484;2022-08-18T14:28:49;24.85;;;13.52;;
44068;SDS011;29738;51.234;5.484;2022-08-18T14:31:15;23.48;;;14.50;;
44068;SDS011;29738;51.234;5.484;2022-08-18T14:33:41;25.17;;;13.82;;
44068;SDS011;29738;51.234;5.484;2022-08-18T14:36:09;26.77;;;13.60;;
44068;SDS011;29738;51.234;5.484;2022-08-18T14:38:38;24.70;;;14.90;;
44068;SDS011;29738;51.234;5.484;2022-08-18T14:41:05;22.85;;;13.77;;
44068;SDS011;29738;51.234;5.484;2022-08-18T14:43:33;28.20;;;14.75;;
44068;SDS011;29738;51.234;5.484;2022-08-18T14:46:00;26.13;;;13.65;;
44068;SDS011;29738;51.234;5.484;2022-08-18T14:48:26;25.83;;;14.07;;
44068;SDS011;29738;51.234;5.484;2022-08-18T14:50:54;27.02;;;14.43;;
44068;SDS011;29738;51.234;5.484;2022-08-18T14:53:23;26.02;;;13.88;;
44068;SDS011;29738;51.234;5.484;2022-08-18T14:55:51;26.02;;;14.15;;
44068;SDS011;29738;51.234;5.484;2022-08-18T14:58:19;25.80;;;13.85;;
44068;SDS011;29738;51.234;5.484;2022-08-18T15:00:57;25.00;;;14.10;;
44068;SDS011;29738;51.234;5.484;2022-08-18T15:03:25;25.20;;;14.60;;
44068;SDS011;29738;51.234;5.484;2022-08-18T15:05:53;24.38;;;14.23;;
44068;SDS011;29738;51.234;5.484;2022-08-18T15:08:19;27.08;;;14.25;;
44068;SDS011;29738;51.234;5.484;2022-08-18T15:10:46;23.02;;;12.63;;
44068;SDS011;29738;51.234;5.484;2022-08-18T15:13:12;23.95;;;14.60;;
44068;SDS011;29738;51.234;5.484;2022-08-18T15:15:38;25.08;;;14.75;;
44068;SDS011;29738;51.234;5.484;2022-08-18T15:18:04;27.80;;;14.65;;
44068;SDS011;29738;51.234;5.484;2022-08-18T15:20:30;22.60;;;13.95;;
44068;SDS011;29738;51.234;5.484;2022-08-18T15:23:00;21.02;;;12.80;;
44068;SDS011;29738;51.234;5.484;2022-08-18T15:25:45;24.92;;;14.55;;
44068;SDS011;29738;51.234;5.484;2022-08-18T15:28:13;27.02;;;14.63;;
44068;SDS011;29738;51.234;5.484;2022-08-18T15:30:44;23.25;;;13.80;;
44068;SDS011;29738;51.234;5.484;2022-08-18T15:33:12;27.52;;;15.50;;
44068;SDS011;29738;51.234;5.484;2022-08-18T15:35:39;26.75;;;14.30;;
44068;SDS011;29738;51.234;5.484;2022-08-18T15:38:07;25.05;;;14.55;;
44068;SDS011;29738;51.234;5.484;2022-08-18T15:40:33;26.75;;;14.40;;
44068;SDS011;29738;51.234;5.484;2022-08-18T15:42:59;24.15;;;13.65;;
44068;SDS011;29738;51.234;5.484;2022-08-18T15:45:32;25.55;;;13.90;;
44068;SDS011;29738;51.234;5.484;2022-08-18T15:48:03;24.10;;;14.25;;
44068;SDS011;29738;51.234;5.484;2022-08-18T15:50:29;22.65;;;13.43;;
44068;SDS011;29738;51.234;5.484;2022-08-18T15:52:59;24.30;;;14.68;;
44068;SDS011;29738;51.234;5.484;2022-08-18T15:55:29;22.50;;;14.00;;
44068;SDS011;29738;51.234;5.484;2022-08-18T15:57:56;25.45;;;14.38;;
44068;SDS011;29738;51.234;5.484;2022-08-18T16:00:23;25.02;;;14.65;;
44068;SDS011;29738;51.234;5.484;2022-08-18T16:02:57;25.33;;;14.73;;
44068;SDS011;29738;51.234;5.484;2022-08-18T16:05:26;25.63;;;15.25;;
44068;SDS011;29738;51.234;5.484;2022-08-18T16:07:55;24.48;;;15.00;;
44068;SDS011;29738;51.234;5.484;2022-08-18T16:10:23;25.23;;;15.55;;
44068;SDS011;29738;51.234;5.484;2022-08-18T16:12:50;24.67;;;15.27;;
44068;SDS011;29738;51.234;5.484;2022-08-18T16:15:17;26.67;;;15.73;;
44068;SDS011;29738;51.234;5.484;2022-08-18T16:17:45;23.95;;;14.85;;
44068;SDS011;29738;51.234;5.484;2022-08-18T16:20:11;24.73;;;16.17;;
44068;SDS011;29738;51.234;5.484;2022-08-18T16:22:38;23.38;;;14.95;;
44068;SDS011;29738;51.234;5.484;2022-08-18T16:25:05;25.77;;;16.25;;
44068;SDS011;29738;51.234;5.484;2022-08-18T16:27:32;25.15;;;17.00;;
44068;SDS011;29738;51.234;5.484;2022-08-18T16:29:59;28.35;;;17.67;;
44068;SDS011;29738;51.234;5.484;2022-08-18T16:32:26;23.05;;;15.75;;
44068;SDS011;29738;51.234;5.484;2022-08-18T16:34:52;26.33;;;16.63;;
44068;SDS011;29738;51.234;5.484;2022-08-18T16:37:18;23.65;;;16.05;;
44068;SDS011;29738;51.234;5.484;2022-08-18T16:39:44;27.20;;;16.85;;
44068;SDS011;29738;51.234;5.484;2022-08-18T16:42:10;26.75;;;15.93;;
44068;SDS011;29738;51.234;5.484;2022-08-18T16:44:36;27.15;;;16.80;;
44068;SDS011;29738;51.234;5.484;2022-08-18T16:47:03;25.30;;;16.65;;
44068;SDS011;29738;51.234;5.484;2022-08-18T16:49:29;27.63;;;17.52;;
44068;SDS011;29738;51.234;5.484;2022-08-18T16:51:57;25.63;;;16.65;;
44068;SDS011;29738;51.234;5.484;2022-08-18T16:54:26;25.55;;;17.52;;
44068;SDS011;29738;51.234;5.484;2022-08-18T16:56:56;26.67;;;17.52;;
44068;SDS011;29738;51.234;5.484;2022-08-18T16:59:22;27.90;;;16.73;;
44068;SDS011;29738;51.234;5.484;2022-08-18T17:02:07;30.92;;;17.70;;
44068;SDS011;29738;51.234;5.484;2022-08-18T17:04:51;32.92;;;18.52;;
44068;SDS011;29738;51.234;5.484;2022-08-18T17:07:17;26.90;;;18.17;;
44068;SDS011;29738;51.234;5.484;2022-08-18T17:09:43;29.42;;;17.58;;
44068;SDS011;29738;51.234;5.484;2022-08-18T17:12:09;28.70;;;18.38;;
44068;SDS011;29738;51.234;5.484;2022-08-18T17:14:35;31.20;;;19.85;;
44068;SDS011;29738;51.234;5.484;2022-08-18T17:17:02;35.70;;;21.70;;
44068;SDS011;29738;51.234;5.484;2022-08-18T17:19:30;39.50;;;25.00;;
44068;SDS011;29738;51.234;5.484;2022-08-18T17:21:59;36.10;;;23.67;;
44068;SDS011;29738;51.234;5.484;2022-08-18T17:24:25;36.72;;;22.67;;